createdAt,value
2023-04-05T00:00:10.349Z,64.17
2023-04-05T00:02:40.807Z,65.56
2023-04-05T00:05:09.730Z,65.28
2023-04-05T00:07:38.404Z,64.53
2023-04-05T00:10:06.525Z,64.38
2023-04-05T00:12:35.289Z,65.11
2023-04-05T00:15:05.142Z,65.30
2023-04-05T00:17:32.992Z,65.84
2023-04-05T00:20:01.777Z,65.93
2023-04-05T00:22:31.822Z,66.32
2023-04-05T00:24:59.498Z,66.32
2023-04-05T00:27:27.196Z,66.12
2023-04-05T00:29:55.149Z,65.89
2023-04-05T00:32:24.409Z,66.31
2023-04-05T00:34:52.084Z,65.80
2023-04-05T00:37:20.020Z,65.66
2023-04-05T00:39:47.977Z,66.11
2023-04-05T00:42:15.633Z,66.74
2023-04-05T00:44:43.201Z,66.43
2023-04-05T00:47:10.874Z,65.95
2023-04-05T00:49:39.962Z,66.38
2023-04-05T00:52:10.447Z,66.17
2023-04-05T00:54:39.197Z,67.00
2023-04-05T00:57:07.381Z,67.27
2023-04-05T00:59:35.086Z,66.56
2023-04-05T01:02:13.364Z,65.41
2023-04-05T01:04:46.579Z,65.91
2023-04-05T01:07:24.486Z,65.78
2023-04-05T01:09:57.812Z,66.63
2023-04-05T01:12:29.577Z,66.26
2023-04-05T01:14:57.247Z,65.87
2023-04-05T01:17:28.266Z,65.42
2023-04-05T01:20:00.420Z,66.41
2023-04-05T01:23:00.948Z,66.51
2023-04-05T01:25:50.633Z,67.08
2023-04-05T01:28:50.812Z,67.74
2023-04-05T01:31:28.050Z,68.42
2023-04-05T01:34:01.004Z,67.68
2023-04-05T01:36:34.943Z,68.00
2023-04-05T01:39:05.429Z,67.01
2023-04-05T01:41:33.567Z,66.34
2023-04-05T01:44:01.210Z,66.71
2023-04-05T01:46:31.054Z,67.83
2023-04-05T01:48:58.712Z,67.21
2023-04-05T01:51:26.466Z,66.68
2023-04-05T01:53:54.078Z,66.48
2023-04-05T01:56:21.716Z,67.09
2023-04-05T01:58:49.392Z,66.48
2023-04-05T02:01:17.091Z,68.14
2023-04-05T02:03:46.400Z,67.36
2023-04-05T02:06:14.186Z,68.01
2023-04-05T02:08:41.757Z,68.05
2023-04-05T02:11:09.374Z,67.13
2023-04-05T02:13:37.036Z,66.97
2023-04-05T02:16:04.735Z,67.64
2023-04-05T02:18:32.372Z,67.87
2023-04-05T02:21:05.875Z,68.06
2023-04-05T02:23:34.017Z,67.63
2023-04-05T02:26:02.031Z,68.89
2023-04-05T02:28:30.166Z,68.15
2023-04-05T02:30:57.901Z,68.43
2023-04-05T02:33:25.830Z,69.75
2023-04-05T02:35:56.998Z,70.11
2023-04-05T02:38:25.956Z,69.26
2023-04-05T02:40:55.270Z,70.15
2023-04-05T02:43:22.888Z,70.18
2023-04-05T02:45:50.562Z,68.49
2023-04-05T02:48:18.254Z,68.10
2023-04-05T02:50:49.789Z,70.22
2023-04-05T02:53:17.528Z,70.26
2023-04-05T02:55:53.174Z,69.61
2023-04-05T02:58:20.904Z,69.87
2023-04-05T03:00:51.308Z,70.06
2023-04-05T03:03:19.334Z,70.45
2023-04-05T03:05:48.659Z,70.65
2023-04-05T03:08:25.949Z,69.50
2023-04-05T03:10:55.428Z,70.16
2023-04-05T03:13:23.086Z,70.16
2023-04-05T03:15:54.805Z,69.53
2023-04-05T03:18:22.747Z,70.41
2023-04-05T03:20:50.455Z,72.05
2023-04-05T03:23:18.524Z,72.20
2023-04-05T03:25:46.288Z,72.17
2023-04-05T03:28:15.329Z,72.85
2023-04-05T03:30:43.319Z,71.42
2023-04-05T03:33:11.077Z,70.86
2023-04-05T03:35:38.974Z,72.38
2023-04-05T03:38:07.524Z,72.50
2023-04-05T03:40:35.171Z,72.39
2023-04-05T03:43:02.992Z,72.50
2023-04-05T03:45:32.102Z,71.96
2023-04-05T03:48:00.032Z,71.29
2023-04-05T03:50:28.279Z,71.21
2023-04-05T03:52:55.988Z,70.48
2023-04-05T03:55:24.130Z,70.69
2023-04-05T03:57:51.861Z,70.07
2023-04-05T04:00:20.024Z,69.83
2023-04-05T04:02:49.521Z,69.52
2023-04-05T04:05:22.551Z,69.22
2023-04-05T04:07:50.512Z,69.65
2023-04-05T04:10:18.647Z,68.75
2023-04-05T04:12:46.537Z,69.79
2023-04-05T04:15:14.149Z,70.40
2023-04-05T04:17:41.729Z,71.43
2023-04-05T04:20:12.033Z,71.64
2023-04-05T04:22:40.788Z,70.38
2023-04-05T04:25:15.010Z,69.78
2023-04-05T04:27:48.269Z,70.54
2023-04-05T04:30:16.667Z,69.93
2023-04-05T04:32:54.733Z,69.76
2023-04-05T04:35:25.833Z,70.01
2023-04-05T04:37:57.937Z,70.64
2023-04-05T04:40:26.773Z,71.39
2023-04-05T04:42:54.742Z,69.93
2023-04-05T04:45:22.434Z,69.86
2023-04-05T04:47:52.838Z,70.08
2023-04-05T04:50:22.117Z,71.28
2023-04-05T04:52:51.308Z,71.05
2023-04-05T04:55:18.964Z,72.58
2023-04-05T04:57:46.615Z,72.32
2023-04-05T05:00:16.024Z,72.74
2023-04-05T05:02:44.766Z,73.40
2023-04-05T05:05:13.030Z,73.49
2023-04-05T05:07:43.779Z,73.38
2023-04-05T05:10:16.079Z,73.38
2023-04-05T05:12:43.983Z,73.98
2023-04-05T05:15:12.530Z,73.93
2023-04-05T05:17:40.321Z,73.38
2023-04-05T05:20:11.896Z,72.55
2023-04-05T05:22:41.452Z,71.34
2023-04-05T05:25:12.409Z,66.99
2023-04-05T05:27:41.985Z,65.72
2023-04-05T05:30:14.490Z,63.69
2023-04-05T05:32:42.969Z,61.31
2023-04-05T05:35:11.116Z,59.55
2023-04-05T05:37:38.915Z,57.93
2023-04-05T05:40:07.822Z,56.70
2023-04-05T05:42:35.897Z,55.22
2023-04-05T05:45:06.606Z,53.81
2023-04-05T05:47:34.340Z,53.47
2023-04-05T05:50:02.140Z,53.09
2023-04-05T05:52:29.788Z,53.36
2023-04-05T05:54:57.485Z,51.28
2023-04-05T05:57:25.048Z,51.15
2023-04-05T05:59:52.702Z,51.27
2023-04-05T06:02:22.009Z,49.81
2023-04-05T06:04:49.870Z,47.31
2023-04-05T06:07:28.926Z,46.42
2023-04-05T06:09:56.815Z,43.65
2023-04-05T06:12:24.817Z,43.33
2023-04-05T06:14:53.376Z,42.59
2023-04-05T06:20:03.815Z,41.34
2023-04-05T06:22:31.403Z,40.51
2023-04-05T06:24:58.975Z,41.49
2023-04-05T06:27:27.053Z,41.03
2023-04-05T06:29:55.500Z,43.21
2023-04-05T06:32:26.500Z,43.19
2023-04-05T06:34:54.380Z,43.16
2023-04-05T06:37:22.281Z,41.19
2023-04-05T06:39:51.597Z,39.53
2023-04-05T06:42:19.232Z,39.00
2023-04-05T06:44:46.864Z,40.12
2023-04-05T06:47:16.247Z,39.36
2023-04-05T06:49:45.418Z,38.10
2023-04-05T06:52:13.109Z,39.17
2023-04-05T06:54:40.765Z,40.12
2023-04-05T06:57:09.020Z,39.74
2023-04-05T06:59:38.034Z,40.26
2023-04-05T07:02:09.299Z,41.42
2023-04-05T07:04:38.166Z,41.39
2023-04-05T07:07:07.187Z,41.04
2023-04-05T07:09:34.836Z,43.14
2023-04-05T07:12:05.358Z,39.53
2023-04-05T07:14:34.252Z,37.01
2023-04-05T07:17:02.297Z,36.28
2023-04-05T07:19:30.007Z,37.45
2023-04-05T07:21:57.771Z,37.82
2023-04-05T07:24:26.899Z,37.69
2023-04-05T07:26:54.656Z,38.08
2023-04-05T07:29:22.565Z,37.26
2023-04-05T07:31:52.255Z,38.31
2023-04-05T07:34:20.131Z,39.51
2023-04-05T07:36:47.892Z,37.50
2023-04-05T07:39:15.860Z,36.97
2023-04-05T07:41:45.037Z,38.88
2023-04-05T07:44:12.655Z,42.15
2023-04-05T07:46:45.117Z,41.92
2023-04-05T07:49:15.036Z,39.33
2023-04-05T07:51:43.413Z,37.38
2023-04-05T07:54:11.545Z,38.17
2023-04-05T07:56:39.179Z,38.72
2023-04-05T07:59:08.866Z,38.67
2023-04-05T08:01:36.492Z,36.75
2023-04-05T08:04:04.170Z,38.01
2023-04-05T08:06:32.143Z,38.72
2023-04-05T08:08:59.952Z,37.73
2023-04-05T08:11:27.667Z,37.53
2023-04-05T08:13:57.167Z,36.09
2023-04-05T08:16:26.324Z,36.98
2023-04-05T08:18:54.128Z,37.56
2023-04-05T08:21:21.970Z,37.20
2023-04-05T08:23:51.887Z,38.65
2023-04-05T08:26:19.934Z,40.28
2023-04-05T08:28:47.737Z,38.23
2023-04-05T08:31:15.512Z,40.75
2023-04-05T08:33:44.593Z,38.66
2023-04-05T08:36:12.729Z,38.88
2023-04-05T08:38:40.391Z,37.85
2023-04-05T08:41:11.459Z,36.00
2023-04-05T08:43:54.130Z,34.87
2023-04-05T08:46:23.774Z,37.19
2023-04-05T08:48:53.466Z,38.61
2023-04-05T08:51:22.290Z,36.65
2023-04-05T08:53:50.490Z,35.57
2023-04-05T08:56:22.006Z,36.87
2023-04-05T08:58:57.745Z,36.42
2023-04-05T09:01:27.112Z,37.84
2023-04-05T09:03:57.797Z,36.84
2023-04-05T09:06:27.001Z,34.98
2023-04-05T09:08:56.453Z,35.16
2023-04-05T09:11:25.729Z,36.73
2023-04-05T09:13:56.415Z,38.20
2023-04-05T09:16:27.107Z,37.07
2023-04-05T09:18:56.277Z,36.21
2023-04-05T09:21:24.100Z,37.52
2023-04-05T09:23:55.965Z,37.44
2023-04-05T09:26:25.819Z,36.95
2023-04-05T09:28:53.734Z,37.43
2023-04-05T09:31:31.999Z,38.55
2023-04-05T09:34:03.412Z,37.65
2023-04-05T09:36:32.915Z,37.83
2023-04-05T09:39:07.913Z,38.31
2023-04-05T09:41:39.703Z,39.15
2023-04-05T09:44:07.996Z,40.29
2023-04-05T09:46:38.188Z,41.49
2023-04-05T09:49:11.126Z,41.46
2023-04-05T09:51:40.052Z,41.24
2023-04-05T09:54:10.290Z,42.11
2023-04-05T09:56:43.504Z,41.33
2023-04-05T09:59:13.533Z,41.77
2023-04-05T10:01:45.851Z,40.77
2023-04-05T10:04:14.835Z,39.89
2023-04-05T10:06:43.968Z,39.99
2023-04-05T10:09:14.981Z,40.57
2023-04-05T10:11:44.811Z,40.41
2023-04-05T10:14:12.461Z,39.90
2023-04-05T10:16:50.480Z,39.76
2023-04-05T10:19:27.819Z,39.39
2023-04-05T10:21:57.906Z,38.83
2023-04-05T10:24:36.775Z,38.65
2023-04-05T10:27:07.517Z,39.71
2023-04-05T10:29:44.846Z,39.68
2023-04-05T10:32:19.488Z,38.07
2023-04-05T10:34:58.598Z,38.66
2023-04-05T10:37:36.962Z,38.37
2023-04-05T10:40:09.174Z,38.78
2023-04-05T10:42:42.980Z,38.56
2023-04-05T10:45:15.386Z,38.03
2023-04-05T10:47:49.177Z,38.47
2023-04-05T10:50:23.144Z,39.20
2023-04-05T10:52:52.415Z,38.72
2023-04-05T10:55:21.355Z,38.43
2023-04-05T10:57:51.000Z,37.64
2023-04-05T11:00:20.271Z,38.17
2023-04-05T11:02:49.566Z,37.23
2023-04-05T11:05:35.648Z,37.31
2023-04-05T11:08:06.408Z,37.23
2023-04-05T11:10:37.438Z,36.06
2023-04-05T11:13:11.905Z,36.14
2023-04-05T11:15:40.088Z,36.24
2023-04-05T11:18:10.300Z,36.59
2023-04-05T11:20:47.138Z,37.16
2023-04-05T11:23:16.636Z,36.79
2023-04-05T11:25:50.915Z,37.92
2023-04-05T11:28:26.711Z,37.08
2023-04-05T11:30:57.032Z,36.28
2023-04-05T11:33:38.354Z,36.18
2023-04-05T11:36:08.746Z,34.77
2023-04-05T11:38:36.778Z,35.13
2023-04-05T11:41:12.292Z,35.81
2023-04-05T11:43:42.049Z,35.24
2023-04-05T11:46:09.656Z,35.23
2023-04-05T11:48:37.483Z,34.30
2023-04-05T11:51:10.639Z,35.30
2023-04-05T11:53:38.320Z,33.80
2023-04-05T11:56:12.772Z,35.17
2023-04-05T11:58:40.917Z,33.66
2023-04-05T12:01:10.033Z,33.18
2023-04-05T12:03:38.728Z,34.10
2023-04-05T12:06:09.109Z,34.77
2023-04-05T12:08:41.812Z,34.22
2023-04-05T12:11:11.458Z,34.41
2023-04-05T12:13:40.414Z,34.43
2023-04-05T12:16:09.743Z,34.39
2023-04-05T12:18:38.936Z,35.28
2023-04-05T12:21:08.515Z,35.87
2023-04-05T12:23:38.175Z,32.35
2023-04-05T12:26:07.954Z,35.06
2023-04-05T12:28:52.069Z,33.17
2023-04-05T12:31:35.868Z,32.63
2023-04-05T12:34:03.492Z,32.16
2023-04-05T12:36:32.520Z,32.46
2023-04-05T12:39:02.368Z,32.15
2023-04-05T12:41:30.678Z,34.53
2023-04-05T12:44:01.643Z,35.73
2023-04-05T12:46:40.498Z,35.85
2023-04-05T12:49:11.611Z,35.65
2023-04-05T12:51:42.894Z,34.02
2023-04-05T12:54:15.000Z,35.65
2023-04-05T12:56:42.860Z,34.74
2023-04-05T12:59:10.884Z,34.93
2023-04-05T13:01:39.275Z,33.97
2023-04-05T13:04:15.365Z,34.09
2023-04-05T13:06:44.427Z,33.45
2023-04-05T13:09:12.224Z,33.40
2023-04-05T13:11:41.277Z,33.15
2023-04-05T13:14:08.922Z,32.35
2023-04-05T13:16:36.725Z,32.40
2023-04-05T13:19:04.494Z,32.70
2023-04-05T13:21:32.550Z,32.54
2023-04-05T13:24:00.241Z,32.50
2023-04-05T13:26:28.242Z,31.37
2023-04-05T13:28:57.253Z,30.96
2023-04-05T13:31:25.063Z,31.63
2023-04-05T13:33:52.985Z,32.26
2023-04-05T13:36:20.576Z,31.99
2023-04-05T13:38:48.102Z,32.52
2023-04-05T13:41:16.154Z,30.65
2023-04-05T13:43:43.777Z,29.54
2023-04-05T13:46:12.684Z,29.18
2023-04-05T13:48:40.487Z,29.09
2023-04-05T13:51:08.351Z,28.69
2023-04-05T13:53:35.986Z,28.59
2023-04-05T13:56:03.589Z,27.61
2023-04-05T13:58:31.249Z,28.08
2023-04-05T14:00:58.941Z,28.80
2023-04-05T14:03:28.115Z,29.68
2023-04-05T14:05:55.851Z,28.22
2023-04-05T14:08:23.472Z,28.50
2023-04-05T14:10:51.448Z,29.01
2023-04-05T14:13:19.085Z,28.55
2023-04-05T14:15:46.638Z,27.81
2023-04-05T14:18:14.304Z,27.87
2023-04-05T14:20:43.508Z,28.04
2023-04-05T14:23:11.378Z,29.31
2023-04-05T14:25:39.049Z,28.91
2023-04-05T14:28:06.936Z,28.46
2023-04-05T14:30:34.573Z,27.45
2023-04-05T14:33:02.597Z,27.74
2023-04-05T14:35:30.418Z,27.83
2023-04-05T14:37:59.298Z,27.26
2023-04-05T14:40:27.005Z,27.33
2023-04-05T14:42:54.754Z,28.06
2023-04-05T14:45:23.545Z,29.14
2023-04-05T14:47:51.802Z,27.94
2023-04-05T14:50:19.909Z,28.55
2023-04-05T14:52:47.632Z,27.91
2023-04-05T14:55:16.761Z,27.56
2023-04-05T14:57:44.402Z,28.36
2023-04-05T15:00:13.489Z,28.60
2023-04-05T15:02:43.306Z,28.59
2023-04-05T15:05:12.357Z,28.72
2023-04-05T15:07:42.159Z,28.98
2023-04-05T15:10:19.517Z,29.03
2023-04-05T15:12:50.382Z,29.43
2023-04-05T15:15:18.446Z,30.44
2023-04-05T15:17:46.184Z,30.18
2023-04-05T15:20:25.860Z,30.51
2023-04-05T15:22:53.899Z,30.39
2023-04-05T15:25:21.877Z,31.25
2023-04-05T15:27:51.301Z,31.25
2023-04-05T15:30:20.516Z,31.24
2023-04-05T15:32:50.421Z,31.21
2023-04-05T15:35:18.714Z,30.65
2023-04-05T15:37:46.887Z,31.29
2023-04-05T15:40:14.802Z,31.65
2023-04-05T15:42:42.505Z,32.07
2023-04-05T15:45:12.766Z,32.32
2023-04-05T15:47:41.021Z,32.01
2023-04-05T15:50:09.137Z,31.74
2023-04-05T15:52:37.873Z,31.79
2023-04-05T15:55:09.690Z,31.60
2023-04-05T15:57:37.444Z,32.37
2023-04-05T16:00:09.227Z,32.11
2023-04-05T16:02:39.473Z,32.65
2023-04-05T16:05:07.832Z,32.08
2023-04-05T16:07:35.806Z,32.66
2023-04-05T16:10:04.449Z,32.30
2023-04-05T16:12:32.171Z,32.74
2023-04-05T16:14:59.824Z,33.54
2023-04-05T16:17:27.934Z,32.84
2023-04-05T16:19:57.481Z,33.20
2023-04-05T16:22:25.697Z,33.86
2023-04-05T16:24:53.695Z,33.32
2023-04-05T16:27:21.386Z,34.42
2023-04-05T16:29:49.443Z,33.37
2023-04-05T16:32:18.074Z,33.51
2023-04-05T16:34:45.933Z,33.52
2023-04-05T16:37:14.960Z,33.82
2023-04-05T16:39:50.737Z,33.42
2023-04-05T16:42:18.500Z,32.82
2023-04-05T16:44:46.439Z,34.24
2023-04-05T16:47:14.097Z,33.84
2023-04-05T16:49:41.775Z,34.60
2023-04-05T16:52:10.279Z,34.66
2023-04-05T16:54:39.622Z,34.14
2023-04-05T16:57:07.264Z,33.67
2023-04-05T16:59:35.010Z,33.64
2023-04-05T17:02:04.382Z,34.11
2023-04-05T17:04:32.454Z,34.11
2023-04-05T17:07:00.530Z,34.10
2023-04-05T17:09:29.203Z,33.39
2023-04-05T17:11:58.192Z,33.23
2023-04-05T17:14:26.449Z,32.88
2023-04-05T17:17:13.853Z,33.47
2023-04-05T17:22:24.477Z,34.07
2023-04-05T17:24:58.072Z,34.12
2023-04-05T17:27:35.204Z,33.21
2023-04-05T17:30:10.594Z,33.05
2023-04-05T17:32:41.011Z,33.19
2023-04-05T17:35:30.291Z,34.08
2023-04-05T17:38:03.194Z,33.90
2023-04-05T17:40:53.284Z,33.55
2023-04-05T17:43:31.835Z,34.13
2023-04-05T17:46:00.095Z,34.35
2023-04-05T17:48:30.683Z,34.42
2023-04-05T17:50:58.416Z,34.38
2023-04-05T17:53:26.786Z,35.04
2023-04-05T17:55:56.669Z,35.19
2023-04-05T17:58:26.424Z,35.47
2023-04-05T18:00:56.937Z,35.42
2023-04-05T18:03:26.009Z,34.25
2023-04-05T18:05:54.602Z,34.21
2023-04-05T18:08:23.535Z,34.23
2023-04-05T18:11:07.723Z,34.41
2023-04-05T18:13:39.149Z,35.05
2023-04-05T18:16:06.994Z,34.70
2023-04-05T18:18:35.857Z,35.50
2023-04-05T18:21:03.600Z,35.81
2023-04-05T18:23:31.376Z,36.16
2023-04-05T18:25:59.380Z,36.29
2023-04-05T18:28:27.089Z,36.02
2023-04-05T18:30:57.348Z,36.78
2023-04-05T18:33:25.864Z,36.99
2023-04-05T18:35:54.180Z,36.85
2023-04-05T18:38:22.597Z,36.71
2023-04-05T18:40:50.384Z,36.94
2023-04-05T18:43:18.022Z,37.23
2023-04-05T18:45:45.787Z,37.37
2023-04-05T18:48:18.844Z,37.28
2023-04-05T18:50:48.136Z,37.56
2023-04-05T18:53:16.228Z,37.08
2023-04-05T18:55:44.952Z,37.54
2023-04-05T19:07:05.410Z,38.35
2023-04-05T19:09:40.982Z,38.32
2023-04-05T19:12:15.548Z,37.87
2023-04-05T19:14:43.388Z,38.57
2023-04-05T19:17:11.090Z,38.64
2023-04-05T19:19:40.162Z,38.70
2023-04-05T19:22:11.383Z,39.01
2023-04-05T19:24:45.029Z,39.34
2023-04-05T19:27:36.839Z,39.47
2023-04-05T19:32:53.847Z,41.24
2023-04-05T19:35:29.722Z,41.74
2023-04-05T19:37:59.061Z,41.42
2023-04-05T19:40:27.001Z,41.46
2023-04-05T19:42:58.427Z,41.25
2023-04-05T19:45:28.089Z,41.98
2023-04-05T19:47:57.021Z,41.96
2023-04-05T19:50:47.169Z,42.22
2023-04-05T19:53:41.860Z,42.68
2023-04-05T19:56:30.492Z,42.56
2023-04-05T19:59:01.923Z,42.73
2023-04-05T20:01:35.676Z,42.70
2023-04-05T20:09:47.593Z,44.65
2023-04-05T20:12:16.074Z,44.79
2023-04-05T20:14:46.351Z,43.95
2023-04-05T20:17:16.092Z,43.85
2023-04-05T20:20:12.366Z,43.68
2023-04-05T20:22:57.065Z,43.70
2023-04-05T20:25:58.157Z,43.28
2023-04-05T20:28:41.623Z,43.56
2023-04-05T20:31:17.754Z,43.64
2023-04-05T20:37:34.458Z,45.80
2023-04-05T20:40:09.053Z,45.84
2023-04-05T20:42:46.186Z,47.12
2023-04-05T20:45:45.908Z,46.25
2023-04-05T20:54:02.907Z,47.69
2023-04-05T20:56:53.514Z,47.36
2023-04-05T21:05:26.318Z,47.51
2023-04-05T21:07:56.619Z,48.20
2023-04-05T21:10:24.871Z,47.88
2023-04-05T21:13:03.330Z,47.58
2023-04-05T21:15:34.963Z,47.69
2023-04-05T21:18:10.032Z,48.49
2023-04-05T21:20:42.286Z,48.72
2023-04-05T21:23:12.215Z,48.82
2023-04-05T21:26:10.031Z,49.23
2023-04-05T21:28:47.618Z,49.63
2023-04-05T21:31:34.490Z,49.78
2023-04-05T21:34:03.333Z,51.04
2023-04-05T21:36:39.078Z,51.21
2023-04-05T21:39:08.132Z,51.75
2023-04-05T21:41:37.044Z,52.74
2023-04-05T21:44:09.124Z,53.39
2023-04-05T21:46:39.425Z,54.78
2023-04-05T21:49:07.716Z,54.83
2023-04-05T21:51:36.001Z,55.26
2023-04-05T21:54:14.400Z,55.63
2023-04-05T21:56:44.848Z,55.97
2023-04-05T21:59:24.015Z,55.99
2023-04-05T22:02:13.356Z,56.10
2023-04-05T22:04:41.303Z,56.55
2023-04-05T22:07:10.631Z,56.98
2023-04-05T22:09:42.646Z,57.16
2023-04-05T22:12:18.855Z,57.34
2023-04-05T22:17:48.374Z,57.60
2023-04-05T22:20:18.098Z,57.42
2023-04-05T22:22:47.194Z,57.90
2023-04-05T22:25:21.656Z,57.85
2023-04-05T22:28:02.234Z,58.91
2023-04-05T22:30:46.771Z,59.33
2023-04-05T22:33:22.072Z,58.25
2023-04-05T22:35:59.589Z,58.38
2023-04-05T22:38:32.770Z,58.45
2023-04-05T22:41:06.929Z,58.72
2023-04-05T22:43:36.181Z,59.25
2023-04-05T22:46:16.410Z,59.72
2023-04-05T22:48:48.017Z,60.55
2023-04-05T22:54:05.447Z,60.60
2023-04-05T22:56:48.363Z,59.73
2023-04-05T23:02:08.514Z,60.51
2023-04-05T23:07:29.731Z,60.08
2023-04-05T23:10:02.461Z,60.43
2023-04-05T23:12:30.641Z,61.28
2023-04-05T23:15:02.097Z,61.92
2023-04-05T23:17:45.282Z,62.00
2023-04-05T23:20:16.079Z,62.81
2023-04-05T23:23:04.403Z,62.56
2023-04-05T23:25:36.525Z,62.88
2023-04-05T23:28:12.886Z,63.41
2023-04-05T23:33:57.580Z,64.38
2023-04-05T23:36:30.128Z,64.92
2023-04-05T23:39:02.207Z,65.60
2023-04-05T23:41:31.092Z,66.57
2023-04-05T23:44:02.633Z,66.87
2023-04-05T23:46:36.552Z,67.42
2023-04-05T23:49:17.810Z,67.04
2023-04-05T23:51:46.266Z,65.87
2023-04-05T23:54:38.720Z,65.83
2023-04-05T23:59:56.569Z,65.72
